Time;durP1;ratioP1;P1;durP2;ratioP2;P2;SDS_P1;SDS_P2;PMS_P1;PMS_P2;Temp;Humidity;BMP_temperature;BMP_pressure;BME280_temperature;BME280_humidity;BME280_pressure;Samples;Min_cycle;Max_cycle;Signal;HPM_P1;HPM_P2
2022/03/15 00:02:23;;;;;;;292.73;114.47;;;;;;;0.49;72.34;96416.38;5024563;28;20632;-77
2022/03/15 00:04:51;;;;;;;293.13;114.83;;;;;;;0.51;72.77;96411.97;5023811;28;20228;-77
2022/03/15 00:07:20;;;;;;;262.67;106.57;;;;;;;0.51;72.56;96412.78;5026217;28;20244;-77
2022/03/15 00:09:48;;;;;;;248.40;98.67;;;;;;;0.53;72.39;96412.66;5023801;28;20211;-77
2022/03/15 00:12:17;;;;;;;174.33;71.30;;;;;;;0.55;71.56;96421.03;5024580;28;20254;-77
2022/03/15 00:14:48;;;;;;;194.93;75.37;;;;;;;0.56;71.22;96420.94;5024036;28;20741;-77
2022/03/15 00:17:21;;;;;;;165.40;67.97;;;;;;;0.48;71.46;96415.56;5028315;28;20286;-76
2022/03/15 00:19:50;;;;;;;189.87;74.80;;;;;;;0.49;71.99;96408.72;5026865;28;20194;-76
2022/03/15 00:22:20;;;;;;;164.23;69.33;;;;;;;0.57;71.52;96409.78;5027362;28;20197;-76
2022/03/15 00:24:49;;;;;;;154.27;62.47;;;;;;;0.58;71.22;96408.00;5024742;28;20196;-76
2022/03/15 00:27:18;;;;;;;132.87;53.17;;;;;;;0.60;71.31;96423.25;5020307;28;20196;-76
2022/03/15 00:29:47;;;;;;;95.20;42.47;;;;;;;0.50;70.51;96405.22;5025340;28;20666;-77
2022/03/15 00:32:20;;;;;;;113.40;46.63;;;;;;;0.46;70.30;96396.94;5024447;28;20743;-77
2022/03/15 00:34:48;;;;;;;97.60;44.03;;;;;;;0.39;71.18;96403.44;5021660;28;20199;-77
2022/03/15 00:37:17;;;;;;;87.43;40.90;;;;;;;0.43;70.38;96398.94;5020498;28;20215;-78
2022/03/15 00:39:46;;;;;;;113.40;48.93;;;;;;;0.47;70.31;96401.13;5024868;28;20206;-77
2022/03/15 00:42:15;;;;;;;120.80;49.67;;;;;;;0.44;70.88;96395.44;5023726;28;20270;-77
2022/03/15 00:44:45;;;;;;;123.50;53.40;;;;;;;0.40;71.48;96399.16;5024392;28;20197;-77
2022/03/15 00:47:14;;;;;;;125.93;52.50;;;;;;;0.43;71.88;96404.84;5025918;28;20630;-77
2022/03/15 00:49:42;;;;;;;114.87;49.23;;;;;;;0.39;71.54;96400.91;5023253;28;20191;-76
2022/03/15 00:52:11;;;;;;;101.67;41.50;;;;;;;0.36;71.87;96398.56;5021306;28;20289;-76
2022/03/15 00:54:39;;;;;;;86.20;37.90;;;;;;;0.38;70.97;96393.31;5023187;28;20269;-76
2022/03/15 00:57:07;;;;;;;83.93;36.30;;;;;;;0.38;70.32;96386.47;5024158;28;20259;-75
2022/03/15 00:59:35;;;;;;;78.87;34.97;;;;;;;0.37;70.41;96384.03;5021212;28;20739;-75
2022/03/15 01:02:04;;;;;;;65.97;31.97;;;;;;;0.34;70.25;96381.72;5019576;28;20206;-75
2022/03/15 01:04:34;;;;;;;81.53;34.93;;;;;;;0.31;70.36;96372.53;5022126;28;20195;-75
2022/03/15 01:07:03;;;;;;;75.97;33.70;;;;;;;0.15;71.75;96371.19;5020204;28;20204;-73
2022/03/15 01:09:31;;;;;;;71.30;34.27;;;;;;;0.17;72.21;96367.63;5023596;28;20203;-75
2022/03/15 01:12:00;;;;;;;73.47;32.20;;;;;;;0.12;71.55;96371.41;5022571;28;20582;-74
2022/03/15 01:14:29;;;;;;;74.47;34.40;;;;;;;0.13;71.72;96378.16;5021974;28;20231;-74
2022/03/15 01:16:57;;;;;;;72.93;33.40;;;;;;;0.08;71.66;96382.78;5022103;28;20196;-74
2022/03/15 01:19:25;;;;;;;70.97;33.03;;;;;;;0.06;72.34;96382.09;5019940;28;20199;-74
2022/03/15 01:21:56;;;;;;;71.93;33.77;;;;;;;-0.01;72.45;96371.50;5022088;28;20200;-75
2022/03/15 01:24:25;;;;;;;81.40;33.27;;;;;;;-0.03;72.71;96373.34;5019928;28;20289;-74
2022/03/15 01:26:53;;;;;;;76.03;33.27;;;;;;;-0.12;73.00;96374.84;5021876;28;20222;-75
2022/03/15 01:29:26;;;;;;;66.33;31.97;;;;;;;-0.10;72.94;96379.81;5022009;28;20203;-75
2022/03/15 01:31:59;;;;;;;66.13;31.77;;;;;;;-0.13;73.12;96385.97;5023165;28;20349;-74
2022/03/15 01:34:27;;;;;;;73.73;30.37;;;;;;;-0.14;73.30;96383.50;5021208;28;20674;-75
2022/03/15 01:36:59;;;;;;;65.33;31.00;;;;;;;-0.21;73.61;96385.69;5021556;28;20235;-74
2022/03/15 01:39:28;;;;;;;66.70;30.60;;;;;;;-0.19;73.10;96386.41;5022641;28;20229;-75
2022/03/15 01:41:57;;;;;;;68.17;30.20;;;;;;;-0.24;73.54;96385.09;5021870;28;20286;-76
2022/03/15 01:44:29;;;;;;;65.50;30.30;;;;;;;-0.28;73.75;96392.16;5022763;28;20227;-76
2022/03/15 01:46:57;;;;;;;75.97;31.20;;;;;;;-0.18;74.27;96393.16;5021582;28;20227;-76
2022/03/15 01:49:25;;;;;;;72.00;32.43;;;;;;;-0.17;73.77;96396.50;5021615;28;20196;-77
2022/03/15 01:51:56;;;;;;;88.37;38.67;;;;;;;-0.26;74.28;96397.19;5022282;28;20206;-79
2022/03/15 01:54:25;;;;;;;83.87;37.87;;;;;;;-0.31;74.80;96397.47;5023820;28;20194;-76
2022/03/15 01:56:53;;;;;;;95.63;41.93;;;;;;;-0.27;74.91;96403.19;5024382;28;20219;-76
2022/03/15 01:59:23;;;;;;;98.03;41.87;;;;;;;-0.36;74.82;96409.78;5020626;28;20200;-77
2022/03/15 02:01:52;;;;;;;88.07;39.87;;;;;;;-0.33;75.33;96407.00;5020810;28;20282;-77
2022/03/15 02:04:20;;;;;;;101.87;41.67;;;;;;;-0.32;74.91;96397.59;5025877;28;20274;-77
2022/03/15 02:06:50;;;;;;;106.83;43.23;;;;;;;-0.27;74.60;96395.53;5021518;28;20257;-76
2022/03/15 02:09:20;;;;;;;95.93;42.10;;;;;;;-0.49;75.07;96369.88;5021667;28;20211;-76
2022/03/15 02:11:48;;;;;;;108.20;44.83;;;;;;;-0.40;75.30;96399.84;5022204;28;20192;-77
2022/03/15 02:14:17;;;;;;;104.73;45.33;;;;;;;-0.43;76.01;96398.34;5022559;28;20278;-76
2022/03/15 02:16:46;;;;;;;121.07;48.70;;;;;;;-0.49;76.47;96395.44;5021310;28;20198;-77
2022/03/15 02:19:15;;;;;;;126.30;49.97;;;;;;;-0.49;76.23;96391.09;5024213;28;20198;-77
2022/03/15 02:21:45;;;;;;;117.50;47.70;;;;;;;-0.49;76.43;96387.75;5027683;28;20195;-78
2022/03/15 02:24:13;;;;;;;127.13;49.10;;;;;;;-0.51;76.66;96376.81;5024655;28;20293;-77
2022/03/15 02:26:42;;;;;;;119.53;48.93;;;;;;;-0.46;76.88;96370.47;5018861;28;20239;-77
2022/03/15 02:29:10;;;;;;;127.87;50.60;;;;;;;-0.55;77.50;96371.13;5024394;28;20196;-78
2022/03/15 02:31:40;;;;;;;126.87;50.87;;;;;;;-0.57;77.77;96368.69;5020075;28;20254;-77
2022/03/15 02:34:08;;;;;;;114.23;48.37;;;;;;;-0.53;77.12;96353.97;5020849;28;20678;-77
2022/03/15 02:36:37;;;;;;;111.10;46.27;;;;;;;-0.56;76.65;96349.06;5026108;28;20199;-77
2022/03/15 02:39:08;;;;;;;93.40;40.63;;;;;;;-0.56;77.47;96349.06;5019648;28;20202;-76
2022/03/15 02:41:36;;;;;;;102.90;42.07;;;;;;;-0.56;76.53;96356.75;5020587;28;20187;-77
2022/03/15 02:44:05;;;;;;;90.57;40.83;;;;;;;-0.64;77.20;96364.13;5019476;28;20198;-75
2022/03/15 02:46:36;;;;;;;98.43;43.17;;;;;;;-0.70;76.35;96352.59;5020787;28;20277;-76
2022/03/15 02:49:04;;;;;;;120.80;53.80;;;;;;;-0.66;76.83;96378.72;5019974;28;20195;-74
2022/03/15 02:51:32;;;;;;;186.67;93.77;;;;;;;-0.72;76.90;96359.53;5021420;28;20286;-75
2022/03/15 02:54:08;;;;;;;190.30;97.30;;;;;;;-0.65;76.71;96378.63;5020506;28;20637;-76
2022/03/15 02:56:39;;;;;;;183.10;92.23;;;;;;;-0.72;77.47;96379.94;5019900;28;20258;-76
2022/03/15 02:59:07;;;;;;;153.83;69.57;;;;;;;-0.71;77.72;96376.50;5021556;28;20207;-76
2022/03/15 03:01:35;;;;;;;172.27;81.47;;;;;;;-0.73;77.89;96374.97;5020647;28;20203;-76
2022/03/15 03:04:03;;;;;;;168.63;75.33;;;;;;;-0.66;77.92;96371.06;5021758;28;20195;-76
2022/03/15 03:06:32;;;;;;;135.73;60.97;;;;;;;-0.68;77.59;96368.63;5023239;28;20280;-76
2022/03/15 03:09:01;;;;;;;144.93;65.83;;;;;;;-0.73;77.89;96359.66;5019848;28;20233;-76
2022/03/15 03:11:30;;;;;;;166.73;76.13;;;;;;;-0.72;78.30;96362.09;5020762;28;20195;-77
2022/03/15 03:14:01;;;;;;;177.87;80.23;;;;;;;-0.74;78.27;96361.38;5020083;28;20199;-77
2022/03/15 03:16:30;;;;;;;173.23;79.07;;;;;;;-0.73;78.04;96365.59;5021783;28;20227;-76
2022/03/15 03:18:59;;;;;;;161.00;71.57;;;;;;;-0.75;78.01;96358.97;5020002;28;20214;-76
2022/03/15 03:21:28;;;;;;;157.43;69.43;;;;;;;-0.73;77.94;96342.63;5021609;28;20209;-76
2022/03/15 03:23:57;;;;;;;149.40;62.13;;;;;;;-0.76;77.51;96347.94;5021778;28;20194;-76
2022/03/15 03:26:26;;;;;;;144.97;62.83;;;;;;;-0.82;78.14;96347.53;5020701;28;20617;-76
2022/03/15 03:28:55;;;;;;;161.20;72.43;;;;;;;-0.84;78.54;96349.38;5022265;28;20195;-77
2022/03/15 03:31:24;;;;;;;164.43;71.57;;;;;;;-0.86;78.92;96341.81;5019450;28;20257;-76
2022/03/15 03:33:52;;;;;;;161.57;72.47;;;;;;;-0.84;78.85;96336.63;5020316;28;20626;-76
2022/03/15 03:36:21;;;;;;;157.60;74.47;;;;;;;-0.91;79.14;96338.78;5022111;28;20199;-76
2022/03/15 03:38:52;;;;;;;159.93;73.10;;;;;;;-1.01;79.47;96345.44;5020029;28;20213;-76
2022/03/15 03:41:20;;;;;;;171.93;75.17;;;;;;;-0.97;79.36;96346.03;5022456;28;20196;-76
2022/03/15 03:43:50;;;;;;;178.47;73.13;;;;;;;-0.97;79.79;96351.13;5019948;28;20206;-76
2022/03/15 03:46:19;;;;;;;159.60;67.33;;;;;;;-0.98;79.35;96354.63;5020427;28;20229;-76
2022/03/15 03:48:52;;;;;;;164.40;66.73;;;;;;;-0.97;79.33;96358.78;5022994;28;20202;-76
2022/03/15 03:51:21;;;;;;;139.63;65.10;;;;;;;-1.03;79.57;96360.03;5019951;28;20254;-76
2022/03/15 03:53:48;;;;;;;163.40;67.50;;;;;;;-1.02;79.23;96356.56;5019601;28;20240;-75
2022/03/15 03:56:18;;;;;;;104.37;50.53;;;;;;;-1.06;79.56;96377.28;5019332;28;20222;-76
2022/03/15 03:58:46;;;;;;;73.03;36.30;;;;;;;-1.11;79.21;96371.69;5019167;28;20192;-77
2022/03/15 04:01:14;;;;;;;53.03;28.67;;;;;;;-1.07;78.59;96386.69;5026924;28;20583;-77
2022/03/15 04:03:44;;;;;;;54.47;25.73;;;;;;;-1.11;78.38;96385.25;5016734;28;20659;-77
2022/03/15 04:06:14;;;;;;;49.63;24.13;;;;;;;-1.09;77.82;96395.34;5020017;28;20219;-77
2022/03/15 04:08:46;;;;;;;46.43;22.80;;;;;;;-1.13;77.55;96399.84;5020468;28;20278;-77
2022/03/15 04:11:14;;;;;;;52.43;25.57;;;;;;;-1.13;77.25;96400.63;5021227;28;20744;-77
2022/03/15 04:13:43;;;;;;;57.43;28.57;;;;;;;-1.15;77.88;96399.13;5021637;28;20203;-75
2022/03/15 04:16:12;;;;;;;58.73;30.20;;;;;;;-1.16;77.82;96390.66;5018603;28;20199;-76
2022/03/15 04:18:41;;;;;;;61.93;28.00;;;;;;;-1.17;77.42;96395.84;5019321;28;20229;-77
2022/03/15 04:21:09;;;;;;;52.03;26.23;;;;;;;-1.19;77.42;96403.63;5020179;28;20293;-76
2022/03/15 04:23:39;;;;;;;51.60;26.87;;;;;;;-1.24;77.33;96405.66;5022931;28;20286;-75
2022/03/15 04:26:07;;;;;;;55.10;28.03;;;;;;;-1.27;77.20;96410.16;5021818;28;20198;-76
2022/03/15 04:28:35;;;;;;;71.30;31.87;;;;;;;-1.25;77.70;96411.69;5024471;28;20587;-76
2022/03/15 04:31:04;;;;;;;66.13;33.63;;;;;;;-1.27;77.29;96413.50;5025304;28;20681;-76
2022/03/15 04:33:32;;;;;;;70.33;33.33;;;;;;;-1.24;77.08;96405.66;5024694;28;20279;-76
2022/03/15 04:36:00;;;;;;;76.03;35.70;;;;;;;-1.25;77.16;96411.69;5027460;28;20195;-75
2022/03/15 04:38:29;;;;;;;79.47;37.67;;;;;;;-1.45;78.26;96386.69;5022209;28;20195;-75
2022/03/15 04:40:59;;;;;;;81.50;37.70;;;;;;;-1.38;78.95;96404.94;5022891;28;20203;-76
2022/03/15 04:43:28;;;;;;;89.43;42.30;;;;;;;-1.39;78.72;96405.88;5023703;28;20235;-76
2022/03/15 04:45:56;;;;;;;83.43;40.50;;;;;;;-1.36;78.45;96408.22;5023358;28;20750;-76
2022/03/15 04:48:24;;;;;;;89.83;41.47;;;;;;;-1.32;78.77;96405.34;5021911;28;20670;-76
2022/03/15 04:50:53;;;;;;;86.20;41.63;;;;;;;-1.31;79.21;96395.97;5022687;28;20202;-76
2022/03/15 04:53:21;;;;;;;80.87;39.50;;;;;;;-1.35;79.59;96402.19;5022707;28;20804;-76
2022/03/15 04:55:48;;;;;;;83.90;42.87;;;;;;;-1.39;80.36;96409.25;5023166;28;20230;-76
2022/03/15 04:58:19;;;;;;;93.87;42.47;;;;;;;-1.34;79.40;96402.09;5024292;28;20686;-75
2022/03/15 05:00:47;;;;;;;106.47;47.93;;;;;;;-1.30;79.15;96407.81;5021423;28;20201;-76
2022/03/15 05:03:16;;;;;;;112.50;48.67;;;;;;;-1.30;79.07;96405.25;5020991;28;20199;-71
2022/03/15 05:05:46;;;;;;;104.23;50.27;;;;;;;-1.30;79.30;96410.38;5022465;28;20195;-70
2022/03/15 05:08:14;;;;;;;116.13;51.33;;;;;;;-1.37;79.32;96399.75;5023708;28;20234;-70
2022/03/15 05:13:29;;;;;;;85.80;41.03;;;;;;;-1.27;78.42;96428.00;5017104;28;20606;-70
2022/03/15 05:15:57;;;;;;;92.77;41.10;;;;;;;-1.32;78.02;96415.56;5022617;28;20199;-70
2022/03/15 05:18:27;;;;;;;92.20;42.80;;;;;;;-1.39;78.76;96424.53;5023031;28;20195;-71
2022/03/15 05:20:57;;;;;;;99.63;46.93;;;;;;;-1.37;79.36;96419.31;5023132;28;20195;-71
2022/03/15 05:23:25;;;;;;;109.07;48.77;;;;;;;-1.44;79.99;96416.34;5019330;28;20677;-71
2022/03/15 05:25:53;;;;;;;111.90;48.80;;;;;;;-1.42;80.38;96412.00;5022453;28;20695;-72
2022/03/15 05:28:21;;;;;;;72.97;34.40;;;;;;;-1.31;79.42;96421.47;5025953;28;20207;-70
2022/03/15 05:30:53;;;;;;;61.40;29.73;;;;;;;-1.31;79.05;96416.38;5021090;28;20646;-70
2022/03/15 05:33:21;;;;;;;62.73;29.00;;;;;;;-1.31;79.33;96422.28;5021350;28;20196;-70
2022/03/15 05:35:49;;;;;;;72.60;34.37;;;;;;;-1.33;80.00;96408.00;5021006;28;20200;-74
2022/03/15 05:38:18;;;;;;;77.90;37.47;;;;;;;-1.27;80.26;96418.59;5019487;28;20199;-77
2022/03/15 05:40:48;;;;;;;84.93;40.93;;;;;;;-1.18;80.17;96417.16;5021160;28;20195;-71
2022/03/15 05:43:18;;;;;;;90.50;41.33;;;;;;;-1.18;80.12;96412.88;5021173;28;20203;-69
2022/03/15 05:45:48;;;;;;;86.70;42.30;;;;;;;-1.12;80.30;96414.22;5022118;28;20515;-70
2022/03/15 05:48:18;;;;;;;78.03;38.73;;;;;;;-1.06;79.66;96412.97;5022781;28;20234;-77
2022/03/15 05:50:47;;;;;;;83.23;38.10;;;;;;;-1.05;79.28;96409.53;5024129;28;20191;-73
2022/03/15 05:53:15;;;;;;;87.13;40.53;;;;;;;-1.06;79.65;96418.09;5023112;28;20200;-76
2022/03/15 05:55:43;;;;;;;73.00;37.03;;;;;;;-1.05;79.31;96412.06;5025856;28;20759;-76
2022/03/15 05:58:11;;;;;;;62.40;33.10;;;;;;;-0.95;78.62;96415.66;5026071;28;20246;-77
2022/03/15 06:00:39;;;;;;;60.30;30.87;;;;;;;-0.89;77.93;96413.47;5026145;28;20234;-75
2022/03/15 06:03:08;;;;;;;47.70;26.40;;;;;;;-0.76;76.50;96410.91;5020256;28;20195;-75
2022/03/15 06:05:37;;;;;;;48.80;24.13;;;;;;;-0.73;75.99;96415.81;5022795;28;20560;-75
2022/03/15 06:08:06;;;;;;;50.80;25.83;;;;;;;-0.57;74.52;96426.56;5022865;28;20280;-75
2022/03/15 06:10:33;;;;;;;50.97;23.90;;;;;;;-0.47;73.84;96426.75;5024831;28;20192;-75
2022/03/15 06:13:00;;;;;;;44.73;23.80;;;;;;;-0.44;73.89;96434.22;5022977;28;20690;-75
2022/03/15 06:15:28;;;;;;;49.40;26.33;;;;;;;-0.49;74.55;96428.63;5022069;28;20289;-74
2022/03/15 06:17:59;;;;;;;56.23;29.70;;;;;;;-0.37;74.35;96428.56;5025018;28;20256;-74
2022/03/15 06:20:28;;;;;;;63.53;29.00;;;;;;;-0.42;74.26;96412.75;5022277;28;20222;-74
2022/03/15 06:22:59;;;;;;;53.93;30.07;;;;;;;-0.23;74.04;96433.50;5025238;28;20198;-74
2022/03/15 06:25:30;;;;;;;59.87;28.40;;;;;;;-0.24;73.78;96410.66;5019942;28;20281;-75
2022/03/15 06:27:58;;;;;;;54.07;27.03;;;;;;;-0.09;72.37;96430.78;5024066;28;20215;-74
2022/03/15 06:30:27;;;;;;;58.03;27.43;;;;;;;-0.02;72.34;96432.00;5018346;28;20199;-75
2022/03/15 06:32:55;;;;;;;50.20;26.63;;;;;;;0.03;72.16;96421.44;5016311;28;20549;-76
2022/03/15 06:35:22;;;;;;;52.70;27.90;;;;;;;0.05;72.50;96422.16;5019754;28;20211;-75
2022/03/15 06:37:51;;;;;;;60.73;27.60;;;;;;;0.06;72.74;96434.00;5021480;28;20603;-75
2022/03/15 06:40:25;;;;;;;55.07;27.03;;;;;;;0.20;72.25;96427.91;5019660;28;20204;-75
2022/03/15 06:42:53;;;;;;;52.23;26.20;;;;;;;0.19;71.84;96429.66;5017988;28;20248;-77
2022/03/15 06:45:21;;;;;;;59.97;28.53;;;;;;;0.21;72.23;96438.00;5021386;28;20231;-75
2022/03/15 06:47:50;;;;;;;56.17;28.47;;;;;;;0.21;72.50;96430.34;5021214;28;20606;-76
2022/03/15 06:50:18;;;;;;;51.80;28.67;;;;;;;0.40;70.82;96440.06;5020117;28;20202;-75
2022/03/15 06:52:47;;;;;;;60.40;29.23;;;;;;;0.43;69.77;96421.94;5019177;28;20204;-74
2022/03/15 06:55:15;;;;;;;63.80;29.97;;;;;;;0.54;69.46;96430.47;5023317;28;20231;-76
2022/03/15 06:57:45;;;;;;;56.90;28.47;;;;;;;0.60;70.17;96428.38;5023272;28;20191;-74
2022/03/15 07:00:15;;;;;;;53.43;29.20;;;;;;;0.66;70.33;96435.59;5024469;28;20203;-75
2022/03/15 07:02:44;;;;;;;63.27;29.07;;;;;;;0.76;69.18;96439.91;5025496;28;20283;-75
2022/03/15 07:05:13;;;;;;;59.30;28.10;;;;;;;0.84;68.65;96447.81;5021257;28;20233;-79
2022/03/15 07:07:41;;;;;;;57.20;27.87;;;;;;;0.94;68.04;96440.28;5025812;28;20261;-74
2022/03/15 07:10:12;;;;;;;63.90;29.53;;;;;;;0.97;68.14;96443.44;5028967;28;20232;-73
2022/03/15 07:12:41;;;;;;;52.67;27.10;;;;;;;0.96;67.83;96444.34;5029222;28;20623;-73
2022/03/15 07:15:11;;;;;;;58.70;28.80;;;;;;;1.04;67.86;96448.88;5025026;28;20209;-73
2022/03/15 07:17:39;;;;;;;60.40;29.07;;;;;;;1.05;67.52;96447.97;5022599;28;20187;-74
2022/03/15 07:20:09;;;;;;;64.17;28.47;;;;;;;1.14;67.34;96444.72;5019370;28;20221;-75
2022/03/15 07:22:37;;;;;;;60.00;28.37;;;;;;;1.24;67.19;96439.72;5020141;28;20194;-75
2022/03/15 07:25:06;;;;;;;56.13;28.13;;;;;;;1.34;66.53;96438.91;5020334;28;20201;-75
2022/03/15 07:27:34;;;;;;;52.83;26.13;;;;;;;1.38;65.89;96437.75;5021122;28;20221;-75
2022/03/15 07:30:02;;;;;;;55.87;26.07;;;;;;;1.34;65.61;96440.63;5019941;28;20584;-76
2022/03/15 07:32:32;;;;;;;53.07;26.63;;;;;;;1.44;64.43;96446.69;5019977;28;20227;-73
2022/03/15 07:35:01;;;;;;;55.53;25.57;;;;;;;1.57;63.41;96443.06;5021537;28;20205;-84
2022/03/15 07:37:31;;;;;;;58.63;28.43;;;;;;;1.69;63.55;96441.31;5021456;28;20202;-84
2022/03/15 07:39:59;;;;;;;53.63;27.70;;;;;;;1.81;63.78;96448.03;5022586;28;20191;-77
2022/03/15 07:42:33;;;;;;;62.03;27.33;;;;;;;1.96;62.63;96444.28;5020813;28;20661;-78
2022/03/15 07:45:01;;;;;;;48.30;26.27;;;;;;;2.09;61.38;96444.94;5022782;28;20306;-74
2022/03/15 07:47:30;;;;;;;57.10;27.40;;;;;;;2.08;61.47;96442.47;5019082;28;20242;-75
2022/03/15 07:49:58;;;;;;;55.43;27.80;;;;;;;2.08;61.96;96438.16;5019965;28;20209;-75
2022/03/15 07:52:26;;;;;;;57.87;28.23;;;;;;;2.14;61.36;96435.13;5018248;28;20212;-75
2022/03/15 07:54:56;;;;;;;50.27;26.70;;;;;;;2.18;61.42;96439.06;5020244;28;20649;-75
2022/03/15 07:57:23;;;;;;;62.27;28.40;;;;;;;2.24;60.98;96438.59;5020076;28;20745;-74
2022/03/15 07:59:52;;;;;;;62.60;28.87;;;;;;;2.39;60.84;96435.72;5021596;28;20206;-75
2022/03/15 08:02:19;;;;;;;56.20;29.40;;;;;;;2.47;60.24;96435.91;5024261;28;20689;-74
2022/03/15 08:04:50;;;;;;;57.20;28.20;;;;;;;2.52;60.24;96426.91;5021190;28;20294;-74
2022/03/15 08:07:18;;;;;;;59.77;28.63;;;;;;;2.63;58.94;96426.84;5012564;28;20240;-75
2022/03/15 08:09:48;;;;;;;59.43;29.53;;;;;;;2.76;58.37;96431.78;5021969;28;20209;-75
2022/03/15 08:12:17;;;;;;;57.30;29.23;;;;;;;2.78;58.11;96424.78;5023928;28;20975;-75
2022/03/15 08:14:48;;;;;;;71.23;29.87;;;;;;;2.82;58.04;96421.03;5024274;28;20256;-74
2022/03/15 08:17:17;;;;;;;59.80;27.97;;;;;;;2.88;58.06;96414.56;5023207;28;20263;-74
2022/03/15 08:19:46;;;;;;;57.57;28.60;;;;;;;2.89;57.95;96418.78;5023157;28;20703;-74
2022/03/15 08:22:15;;;;;;;63.53;28.63;;;;;;;2.96;58.00;96414.75;5023947;28;20229;-74
2022/03/15 08:24:47;;;;;;;61.37;27.47;;;;;;;3.01;57.73;96418.53;5026028;28;20287;-75
2022/03/15 08:27:15;;;;;;;59.17;27.27;;;;;;;3.08;56.88;96413.72;5022449;28;20562;-74
2022/03/15 08:29:45;;;;;;;50.37;26.83;;;;;;;3.18;56.96;96414.56;5022855;28;20238;-74
2022/03/15 08:32:13;;;;;;;55.97;27.77;;;;;;;3.39;55.89;96410.19;5023571;28;20221;-77
2022/03/15 08:34:43;;;;;;;54.57;28.23;;;;;;;3.57;56.27;96410.38;5023390;28;20659;-75
2022/03/15 08:37:12;;;;;;;60.27;29.67;;;;;;;3.71;55.68;96408.25;5023645;28;20196;-75
2022/03/15 08:39:43;;;;;;;59.23;29.07;;;;;;;3.91;54.58;96403.94;5024849;28;20205;-75
2022/03/15 08:42:14;;;;;;;57.60;29.77;;;;;;;4.09;54.04;96407.50;5022243;28;20681;-76
2022/03/15 08:44:43;;;;;;;55.70;28.47;;;;;;;4.27;54.69;96405.84;5023333;28;20227;-76
2022/03/15 08:47:13;;;;;;;60.50;29.20;;;;;;;4.41;52.85;96402.06;5023292;28;20207;-76
2022/03/15 08:49:43;;;;;;;68.20;30.40;;;;;;;4.50;53.08;96396.09;5023299;28;20650;-76
2022/03/15 08:52:12;;;;;;;56.07;30.87;;;;;;;4.68;51.96;96401.34;5022303;28;20579;-76
2022/03/15 08:54:43;;;;;;;60.70;30.13;;;;;;;4.76;51.55;96399.69;5022461;28;20201;-75
2022/03/15 08:57:11;;;;;;;61.53;29.17;;;;;;;5.01;50.71;96399.09;5024568;28;20204;-76
2022/03/15 08:59:40;;;;;;;59.13;30.17;;;;;;;5.24;50.53;96394.41;5023328;28;20227;-75
2022/03/15 09:02:09;;;;;;;52.90;28.60;;;;;;;5.49;49.86;96388.59;5025901;28;20209;-76
2022/03/15 09:04:37;;;;;;;50.10;29.23;;;;;;;5.78;48.58;96390.19;5024054;28;20192;-77
2022/03/15 09:07:05;;;;;;;54.70;29.77;;;;;;;6.05;48.52;96378.09;5023003;28;20232;-75
2022/03/15 09:09:33;;;;;;;64.60;29.93;;;;;;;6.29;47.91;96377.50;5022884;28;20229;-74
2022/03/15 09:12:03;;;;;;;68.87;30.57;;;;;;;6.58;46.23;96385.00;5020607;28;20201;-75
2022/03/15 09:14:34;;;;;;;58.40;30.53;;;;;;;6.87;46.20;96375.16;5021762;28;20251;-75
2022/03/15 09:17:01;;;;;;;64.27;31.37;;;;;;;7.10;45.39;96380.66;5022564;28;20206;-74
2022/03/15 09:19:30;;;;;;;57.87;30.03;;;;;;;7.47;44.47;96375.16;5023063;28;20190;-74
2022/03/15 09:22:02;;;;;;;54.67;28.60;;;;;;;7.73;43.38;96376.72;5021673;28;20204;-74
2022/03/15 09:24:30;;;;;;;55.13;30.53;;;;;;;7.96;43.00;96371.75;5022609;28;20311;-75
2022/03/15 09:26:59;;;;;;;68.97;29.87;;;;;;;8.27;41.98;96362.41;5022806;28;20195;-75
2022/03/15 09:29:29;;;;;;;61.50;29.33;;;;;;;8.59;41.91;96366.78;5022013;28;20222;-75
2022/03/15 09:31:58;;;;;;;51.10;29.70;;;;;;;8.88;41.45;96366.28;5024095;28;20195;-74
2022/03/15 09:34:28;;;;;;;49.90;28.87;;;;;;;9.16;39.50;96371.88;5023313;28;20250;-75
2022/03/15 09:36:55;;;;;;;51.17;28.03;;;;;;;9.47;39.64;96372.72;5019992;28;20195;-75
2022/03/15 09:39:25;;;;;;;53.40;27.07;;;;;;;9.72;39.29;96366.47;5025496;28;20274;-75
2022/03/15 09:41:56;;;;;;;52.83;27.37;;;;;;;9.96;38.28;96358.53;5021529;28;20653;-76
2022/03/15 09:44:30;;;;;;;62.17;29.13;;;;;;;10.27;37.55;96353.34;5024796;28;20202;-74
2022/03/15 09:47:02;;;;;;;63.60;27.40;;;;;;;10.48;36.38;96355.25;5022143;28;20190;-75
2022/03/15 09:49:31;;;;;;;49.17;28.43;;;;;;;10.66;36.17;96332.38;5020004;28;20270;-76
2022/03/15 09:51:59;;;;;;;56.00;28.20;;;;;;;11.05;34.88;96353.78;5021676;28;20226;-75
2022/03/15 09:54:31;;;;;;;51.33;28.13;;;;;;;11.30;35.17;96346.50;5024669;28;20206;-74
2022/03/15 09:57:02;;;;;;;54.97;27.27;;;;;;;11.66;34.77;96347.34;5021986;28;20233;-73
2022/03/15 09:59:32;;;;;;;50.03;27.90;;;;;;;11.97;34.35;96348.94;5021071;28;20802;-74
2022/03/15 10:02:01;;;;;;;60.67;38.53;;;;;;;12.16;33.88;96330.09;5021442;28;20203;-74
2022/03/15 10:04:30;;;;;;;49.77;28.43;;;;;;;12.44;32.82;96329.13;5021742;28;20206;-74
2022/03/15 10:06:58;;;;;;;49.77;28.67;;;;;;;12.43;33.44;96324.94;5021956;28;20591;-74
2022/03/15 10:09:26;;;;;;;48.10;26.67;;;;;;;12.60;33.72;96325.47;5021021;28;20280;-74
2022/03/15 10:11:55;;;;;;;51.83;27.27;;;;;;;12.73;32.16;96325.56;5020128;28;20580;-74
2022/03/15 10:14:24;;;;;;;52.90;26.67;;;;;;;12.88;31.79;96322.84;5021743;28;20666;-74
2022/03/15 10:17:02;;;;;;;49.03;26.37;;;;;;;13.00;31.16;96324.75;5021689;28;20203;-73
2022/03/15 10:19:31;;;;;;;48.03;25.63;;;;;;;13.24;30.15;96320.91;5020513;28;20274;-74
2022/03/15 10:22:00;;;;;;;39.10;21.90;;;;;;;13.54;29.28;96309.19;5021215;28;20194;-74
2022/03/15 10:24:31;;;;;;;38.17;23.27;;;;;;;13.83;29.32;96312.50;5020742;28;20199;-75
2022/03/15 10:27:03;;;;;;;41.00;23.83;;;;;;;14.18;28.25;96308.75;5023291;28;20201;-74
2022/03/15 10:29:36;;;;;;;42.90;22.63;;;;;;;14.17;28.69;96301.91;5020998;28;20616;-75
2022/03/15 10:32:05;;;;;;;34.93;20.80;;;;;;;14.32;28.18;96305.19;5021321;28;20296;-74
2022/03/15 10:34:34;;;;;;;41.90;23.63;;;;;;;14.74;28.02;96280.44;5021972;28;21008;-74
2022/03/15 10:37:02;;;;;;;42.77;23.37;;;;;;;15.13;27.38;96295.25;5021644;28;20248;-74
2022/03/15 10:39:31;;;;;;;36.37;21.37;;;;;;;15.27;27.04;96279.28;5022835;28;20297;-75
2022/03/15 10:42:01;;;;;;;43.53;20.20;;;;;;;15.46;26.52;96272.38;5021062;28;20200;-75
2022/03/15 10:44:33;;;;;;;33.70;19.23;;;;;;;15.84;25.85;96286.31;5018953;28;20205;-75
2022/03/15 10:47:10;;;;;;;24.83;14.37;;;;;;;16.24;24.52;96283.47;5020047;28;20786;-74
2022/03/15 10:49:50;;;;;;;24.03;12.63;;;;;;;16.52;23.56;96273.34;5020985;28;20203;-75
2022/03/15 10:52:30;;;;;;;22.07;13.17;;;;;;;16.52;23.19;96278.59;5027372;28;20197;-75
2022/03/15 10:55:10;;;;;;;22.47;13.90;;;;;;;16.78;24.21;96261.84;5020523;28;20195;-74
2022/03/15 10:57:47;;;;;;;17.33;11.53;;;;;;;17.03;23.51;96268.66;5023896;28;20269;-74
2022/03/15 11:00:17;;;;;;;12.93;8.50;;;;;;;16.99;22.07;96267.50;5020546;28;20230;-74
2022/03/15 11:02:48;;;;;;;19.13;9.70;;;;;;;17.35;22.44;96264.06;5020632;28;20231;-74
2022/03/15 11:05:30;;;;;;;22.43;10.80;;;;;;;17.20;22.83;96276.75;5021098;28;20206;-74
2022/03/15 11:08:04;;;;;;;23.60;11.80;;;;;;;17.39;23.59;96251.28;5022206;28;20202;-74
2022/03/15 11:10:32;;;;;;;16.67;9.87;;;;;;;17.27;23.43;96240.72;5020848;28;20187;-75
2022/03/15 11:13:02;;;;;;;23.10;10.10;;;;;;;17.29;23.34;96237.84;5021884;28;20222;-75
2022/03/15 11:15:34;;;;;;;14.40;9.63;;;;;;;17.46;22.46;96249.41;5022293;28;20195;-75
2022/03/15 11:18:05;;;;;;;17.20;10.00;;;;;;;16.99;22.47;96238.59;5017482;28;20188;-75
2022/03/15 11:20:36;;;;;;;16.57;9.87;;;;;;;17.08;23.26;96227.81;5022498;28;20235;-76
2022/03/15 11:23:06;;;;;;;17.70;9.17;;;;;;;17.30;21.93;96221.88;5018739;28;20578;-76
2022/03/15 11:25:39;;;;;;;15.23;7.40;;;;;;;17.05;21.43;96220.34;5021563;28;20581;-75
2022/03/15 11:28:09;;;;;;;12.23;7.30;;;;;;;16.74;22.34;96221.28;5019605;28;20584;-76
2022/03/15 11:30:39;;;;;;;11.67;6.70;;;;;;;16.57;22.26;96207.91;5020001;28;20203;-77
2022/03/15 11:33:10;;;;;;;13.23;7.10;;;;;;;16.46;22.63;96209.41;5019737;28;20257;-76